sensor_id;sensor_type;location;lat;lon;timestamp;P1;durP1;ratioP1;P2;durP2;ratioP2
34928;SDS011;21133;48.048;7.724;2023-05-16T00:01:53;5.63;;;2.70;;
34928;SDS011;21133;48.048;7.724;2023-05-16T00:04:19;2.97;;;2.87;;
34928;SDS011;21133;48.048;7.724;2023-05-16T00:06:46;3.43;;;3.20;;
34928;SDS011;21133;48.048;7.724;2023-05-16T00:09:12;4.27;;;3.20;;
34928;SDS011;21133;48.048;7.724;2023-05-16T00:11:38;4.20;;;4.00;;
34928;SDS011;21133;48.048;7.724;2023-05-16T00:14:04;4.47;;;4.20;;
34928;SDS011;21133;48.048;7.724;2023-05-16T00:16:31;3.50;;;3.40;;
34928;SDS011;21133;48.048;7.724;2023-05-16T00:18:57;3.47;;;3.37;;
34928;SDS011;21133;48.048;7.724;2023-05-16T00:21:24;2.97;;;2.87;;
34928;SDS011;21133;48.048;7.724;2023-05-16T00:23:50;3.37;;;3.27;;
34928;SDS011;21133;48.048;7.724;2023-05-16T00:26:17;2.97;;;2.80;;
34928;SDS011;21133;48.048;7.724;2023-05-16T00:28:43;3.17;;;3.07;;
34928;SDS011;21133;48.048;7.724;2023-05-16T00:31:09;2.73;;;2.73;;
34928;SDS011;21133;48.048;7.724;2023-05-16T00:33:35;3.13;;;3.03;;
34928;SDS011;21133;48.048;7.724;2023-05-16T00:36:01;3.60;;;3.30;;
34928;SDS011;21133;48.048;7.724;2023-05-16T00:38:27;6.73;;;3.13;;
34928;SDS011;21133;48.048;7.724;2023-05-16T00:40:53;2.73;;;2.57;;
34928;SDS011;21133;48.048;7.724;2023-05-16T00:43:19;3.10;;;3.00;;
34928;SDS011;21133;48.048;7.724;2023-05-16T00:45:45;2.77;;;2.73;;
34928;SDS011;21133;48.048;7.724;2023-05-16T00:48:11;3.90;;;3.67;;
34928;SDS011;21133;48.048;7.724;2023-05-16T00:50:38;6.30;;;3.10;;
34928;SDS011;21133;48.048;7.724;2023-05-16T00:53:04;3.23;;;3.13;;
34928;SDS011;21133;48.048;7.724;2023-05-16T00:55:30;3.50;;;3.20;;
34928;SDS011;21133;48.048;7.724;2023-05-16T00:57:56;3.23;;;3.13;;
34928;SDS011;21133;48.048;7.724;2023-05-16T01:00:23;4.63;;;3.00;;
34928;SDS011;21133;48.048;7.724;2023-05-16T01:02:50;3.70;;;3.40;;
34928;SDS011;21133;48.048;7.724;2023-05-16T01:05:17;6.23;;;3.10;;
34928;SDS011;21133;48.048;7.724;2023-05-16T01:07:43;3.23;;;3.23;;
34928;SDS011;21133;48.048;7.724;2023-05-16T01:10:09;3.27;;;3.03;;
34928;SDS011;21133;48.048;7.724;2023-05-16T01:15:08;2.20;;;2.20;;
34928;SDS011;21133;48.048;7.724;2023-05-16T01:20:38;2.80;;;2.70;;
34928;SDS011;21133;48.048;7.724;2023-05-16T01:23:03;4.00;;;2.60;;
34928;SDS011;21133;48.048;7.724;2023-05-16T01:28:34;3.00;;;2.80;;
34928;SDS011;21133;48.048;7.724;2023-05-16T01:31:01;4.40;;;2.60;;
34928;SDS011;21133;48.048;7.724;2023-05-16T01:33:27;3.30;;;3.03;;
34928;SDS011;21133;48.048;7.724;2023-05-16T01:36:02;3.33;;;3.13;;
34928;SDS011;21133;48.048;7.724;2023-05-16T01:38:41;2.37;;;2.30;;
34928;SDS011;21133;48.048;7.724;2023-05-16T01:43:48;3.07;;;2.97;;
34928;SDS011;21133;48.048;7.724;2023-05-16T01:46:29;2.93;;;2.73;;
34928;SDS011;21133;48.048;7.724;2023-05-16T01:48:57;2.90;;;2.90;;
34928;SDS011;21133;48.048;7.724;2023-05-16T01:51:27;4.50;;;2.63;;
34928;SDS011;21133;48.048;7.724;2023-05-16T01:53:55;3.00;;;3.00;;
34928;SDS011;21133;48.048;7.724;2023-05-16T01:56:23;3.07;;;2.97;;
34928;SDS011;21133;48.048;7.724;2023-05-16T01:58:50;3.40;;;3.17;;
34928;SDS011;21133;48.048;7.724;2023-05-16T02:01:17;4.17;;;2.73;;
34928;SDS011;21133;48.048;7.724;2023-05-16T02:03:44;4.67;;;2.90;;
34928;SDS011;21133;48.048;7.724;2023-05-16T02:06:10;2.97;;;2.87;;
34928;SDS011;21133;48.048;7.724;2023-05-16T02:08:35;3.03;;;2.77;;
34928;SDS011;21133;48.048;7.724;2023-05-16T02:11:02;3.70;;;3.60;;
34928;SDS011;21133;48.048;7.724;2023-05-16T02:13:27;3.90;;;3.70;;
34928;SDS011;21133;48.048;7.724;2023-05-16T02:15:53;5.17;;;4.80;;
34928;SDS011;21133;48.048;7.724;2023-05-16T02:18:19;4.80;;;4.50;;
34928;SDS011;21133;48.048;7.724;2023-05-16T02:20:47;5.87;;;5.37;;
34928;SDS011;21133;48.048;7.724;2023-05-16T02:23:14;5.27;;;5.07;;
34928;SDS011;21133;48.048;7.724;2023-05-16T02:25:39;5.33;;;5.13;;
34928;SDS011;21133;48.048;7.724;2023-05-16T02:28:07;5.77;;;5.57;;
34928;SDS011;21133;48.048;7.724;2023-05-16T02:30:33;5.17;;;4.97;;
34928;SDS011;21133;48.048;7.724;2023-05-16T02:32:58;5.73;;;5.10;;
34928;SDS011;21133;48.048;7.724;2023-05-16T02:35:25;6.00;;;5.63;;
34928;SDS011;21133;48.048;7.724;2023-05-16T02:37:50;5.67;;;5.37;;
34928;SDS011;21133;48.048;7.724;2023-05-16T02:40:16;5.77;;;5.43;;
34928;SDS011;21133;48.048;7.724;2023-05-16T02:42:42;7.23;;;6.60;;
34928;SDS011;21133;48.048;7.724;2023-05-16T02:45:08;13.33;;;5.30;;
34928;SDS011;21133;48.048;7.724;2023-05-16T02:47:36;8.30;;;6.37;;
34928;SDS011;21133;48.048;7.724;2023-05-16T02:50:02;6.50;;;6.13;;
34928;SDS011;21133;48.048;7.724;2023-05-16T02:52:28;6.77;;;6.37;;
34928;SDS011;21133;48.048;7.724;2023-05-16T02:54:54;6.10;;;5.70;;
34928;SDS011;21133;48.048;7.724;2023-05-16T02:57:20;7.17;;;6.77;;
34928;SDS011;21133;48.048;7.724;2023-05-16T02:59:46;7.53;;;5.83;;
34928;SDS011;21133;48.048;7.724;2023-05-16T03:02:12;6.97;;;6.53;;
34928;SDS011;21133;48.048;7.724;2023-05-16T03:04:38;9.90;;;7.20;;
34928;SDS011;21133;48.048;7.724;2023-05-16T03:07:04;8.07;;;7.43;;
34928;SDS011;21133;48.048;7.724;2023-05-16T03:09:30;7.20;;;6.60;;
34928;SDS011;21133;48.048;7.724;2023-05-16T03:11:56;7.13;;;6.70;;
34928;SDS011;21133;48.048;7.724;2023-05-16T03:14:23;7.80;;;7.30;;
34928;SDS011;21133;48.048;7.724;2023-05-16T03:16:49;7.90;;;7.37;;
34928;SDS011;21133;48.048;7.724;2023-05-16T03:19:15;9.10;;;7.97;;
34928;SDS011;21133;48.048;7.724;2023-05-16T03:21:41;8.90;;;8.13;;
34928;SDS011;21133;48.048;7.724;2023-05-16T03:24:07;9.33;;;8.63;;
34928;SDS011;21133;48.048;7.724;2023-05-16T03:26:33;10.00;;;8.57;;
34928;SDS011;21133;48.048;7.724;2023-05-16T03:28:59;8.97;;;8.17;;
34928;SDS011;21133;48.048;7.724;2023-05-16T03:31:25;8.57;;;7.73;;
34928;SDS011;21133;48.048;7.724;2023-05-16T03:33:51;11.37;;;8.80;;
34928;SDS011;21133;48.048;7.724;2023-05-16T03:36:19;9.87;;;9.00;;
34928;SDS011;21133;48.048;7.724;2023-05-16T03:38:45;10.30;;;8.20;;
34928;SDS011;21133;48.048;7.724;2023-05-16T03:41:11;9.13;;;8.33;;
34928;SDS011;21133;48.048;7.724;2023-05-16T03:43:37;12.23;;;9.13;;
34928;SDS011;21133;48.048;7.724;2023-05-16T03:46:03;10.03;;;8.87;;
34928;SDS011;21133;48.048;7.724;2023-05-16T03:48:29;12.80;;;8.77;;
34928;SDS011;21133;48.048;7.724;2023-05-16T03:50:55;9.70;;;8.80;;
34928;SDS011;21133;48.048;7.724;2023-05-16T03:53:21;7.60;;;7.10;;
34928;SDS011;21133;48.048;7.724;2023-05-16T03:55:47;10.33;;;9.47;;
34928;SDS011;21133;48.048;7.724;2023-05-16T03:58:13;12.03;;;10.77;;
34928;SDS011;21133;48.048;7.724;2023-05-16T04:00:40;14.70;;;9.43;;
34928;SDS011;21133;48.048;7.724;2023-05-16T04:03:06;11.10;;;10.10;;
34928;SDS011;21133;48.048;7.724;2023-05-16T04:05:32;13.57;;;10.87;;
34928;SDS011;21133;48.048;7.724;2023-05-16T04:07:58;13.27;;;9.87;;
34928;SDS011;21133;48.048;7.724;2023-05-16T04:10:24;14.80;;;10.50;;
34928;SDS011;21133;48.048;7.724;2023-05-16T04:12:52;11.90;;;10.63;;
34928;SDS011;21133;48.048;7.724;2023-05-16T04:15:18;13.00;;;10.30;;
34928;SDS011;21133;48.048;7.724;2023-05-16T04:17:44;11.80;;;10.70;;
34928;SDS011;21133;48.048;7.724;2023-05-16T04:20:10;13.57;;;10.10;;
34928;SDS011;21133;48.048;7.724;2023-05-16T04:22:37;11.07;;;10.03;;
34928;SDS011;21133;48.048;7.724;2023-05-16T04:25:03;12.27;;;10.60;;
34928;SDS011;21133;48.048;7.724;2023-05-16T04:27:29;17.77;;;11.83;;
34928;SDS011;21133;48.048;7.724;2023-05-16T04:29:55;12.77;;;10.20;;
34928;SDS011;21133;48.048;7.724;2023-05-16T04:32:21;10.77;;;9.73;;
34928;SDS011;21133;48.048;7.724;2023-05-16T04:34:47;14.73;;;11.50;;
34928;SDS011;21133;48.048;7.724;2023-05-16T04:37:18;12.43;;;11.10;;
34928;SDS011;21133;48.048;7.724;2023-05-16T04:39:44;19.50;;;11.40;;
34928;SDS011;21133;48.048;7.724;2023-05-16T06:57:29;16.03;;;11.33;;
34928;SDS011;21133;48.048;7.724;2023-05-16T06:59:55;9.00;;;7.77;;
34928;SDS011;21133;48.048;7.724;2023-05-16T07:02:21;15.93;;;10.90;;
34928;SDS011;21133;48.048;7.724;2023-05-16T07:04:47;13.83;;;10.97;;
34928;SDS011;21133;48.048;7.724;2023-05-16T07:07:13;12.73;;;10.90;;
34928;SDS011;21133;48.048;7.724;2023-05-16T07:09:40;11.93;;;10.70;;
34928;SDS011;21133;48.048;7.724;2023-05-16T07:12:06;15.50;;;10.70;;
34928;SDS011;21133;48.048;7.724;2023-05-16T07:14:32;14.50;;;11.90;;
34928;SDS011;21133;48.048;7.724;2023-05-16T07:16:58;17.63;;;11.70;;
34928;SDS011;21133;48.048;7.724;2023-05-16T07:19:23;17.73;;;10.60;;
34928;SDS011;21133;48.048;7.724;2023-05-16T07:21:50;19.03;;;10.83;;
34928;SDS011;21133;48.048;7.724;2023-05-16T07:24:15;14.80;;;10.90;;
34928;SDS011;21133;48.048;7.724;2023-05-16T07:26:41;15.80;;;10.53;;
34928;SDS011;21133;48.048;7.724;2023-05-16T07:29:07;12.83;;;10.60;;
34928;SDS011;21133;48.048;7.724;2023-05-16T07:31:33;13.00;;;10.80;;
34928;SDS011;21133;48.048;7.724;2023-05-16T07:33:59;10.73;;;9.13;;
34928;SDS011;21133;48.048;7.724;2023-05-16T07:36:25;13.87;;;10.90;;
34928;SDS011;21133;48.048;7.724;2023-05-16T07:38:51;12.80;;;10.27;;
34928;SDS011;21133;48.048;7.724;2023-05-16T07:41:17;10.30;;;9.17;;
34928;SDS011;21133;48.048;7.724;2023-05-16T07:43:43;17.30;;;10.60;;
34928;SDS011;21133;48.048;7.724;2023-05-16T07:46:09;12.23;;;10.50;;
34928;SDS011;21133;48.048;7.724;2023-05-16T07:48:35;11.30;;;10.17;;
34928;SDS011;21133;48.048;7.724;2023-05-16T07:51:01;13.70;;;11.60;;
34928;SDS011;21133;48.048;7.724;2023-05-16T07:53:27;9.90;;;9.00;;
34928;SDS011;21133;48.048;7.724;2023-05-16T07:55:53;9.47;;;8.47;;
34928;SDS011;21133;48.048;7.724;2023-05-16T07:58:20;12.83;;;9.57;;
34928;SDS011;21133;48.048;7.724;2023-05-16T08:00:46;10.93;;;9.20;;
34928;SDS011;21133;48.048;7.724;2023-05-16T08:03:12;10.67;;;9.67;;
34928;SDS011;21133;48.048;7.724;2023-05-16T08:05:38;13.80;;;10.33;;
34928;SDS011;21133;48.048;7.724;2023-05-16T08:08:04;10.27;;;9.37;;
34928;SDS011;21133;48.048;7.724;2023-05-16T08:10:30;9.43;;;8.53;;
34928;SDS011;21133;48.048;7.724;2023-05-16T08:12:57;9.13;;;8.43;;
34928;SDS011;21133;48.048;7.724;2023-05-16T08:15:23;9.60;;;8.23;;
34928;SDS011;21133;48.048;7.724;2023-05-16T08:17:50;9.30;;;8.30;;
34928;SDS011;21133;48.048;7.724;2023-05-16T08:20:16;14.67;;;9.50;;
34928;SDS011;21133;48.048;7.724;2023-05-16T08:22:42;14.27;;;10.30;;
34928;SDS011;21133;48.048;7.724;2023-05-16T08:25:08;12.23;;;9.70;;
34928;SDS011;21133;48.048;7.724;2023-05-16T08:27:34;10.57;;;9.67;;
34928;SDS011;21133;48.048;7.724;2023-05-16T08:30:00;12.80;;;9.43;;
34928;SDS011;21133;48.048;7.724;2023-05-16T08:32:26;11.00;;;8.80;;
34928;SDS011;21133;48.048;7.724;2023-05-16T08:34:52;9.97;;;8.70;;
34928;SDS011;21133;48.048;7.724;2023-05-16T08:37:18;10.00;;;8.80;;
34928;SDS011;21133;48.048;7.724;2023-05-16T08:39:44;9.90;;;8.90;;
34928;SDS011;21133;48.048;7.724;2023-05-16T08:42:10;11.67;;;8.50;;
34928;SDS011;21133;48.048;7.724;2023-05-16T08:44:36;13.93;;;9.00;;
34928;SDS011;21133;48.048;7.724;2023-05-16T08:47:06;9.27;;;7.10;;
34928;SDS011;21133;48.048;7.724;2023-05-16T08:49:34;9.23;;;8.37;;
34928;SDS011;21133;48.048;7.724;2023-05-16T08:52:00;9.50;;;8.60;;
34928;SDS011;21133;48.048;7.724;2023-05-16T08:54:27;10.07;;;8.30;;
34928;SDS011;21133;48.048;7.724;2023-05-16T08:56:53;14.83;;;8.77;;
34928;SDS011;21133;48.048;7.724;2023-05-16T08:59:20;10.73;;;9.73;;
34928;SDS011;21133;48.048;7.724;2023-05-16T09:01:46;16.40;;;9.03;;
34928;SDS011;21133;48.048;7.724;2023-05-16T09:04:12;10.40;;;8.27;;
34928;SDS011;21133;48.048;7.724;2023-05-16T09:06:38;12.40;;;7.97;;
34928;SDS011;21133;48.048;7.724;2023-05-16T09:09:05;11.60;;;8.77;;
34928;SDS011;21133;48.048;7.724;2023-05-16T09:11:33;12.20;;;8.83;;
34928;SDS011;21133;48.048;7.724;2023-05-16T09:13:59;11.83;;;10.10;;
34928;SDS011;21133;48.048;7.724;2023-05-16T09:16:25;10.40;;;8.67;;
34928;SDS011;21133;48.048;7.724;2023-05-16T09:18:54;9.87;;;8.73;;
34928;SDS011;21133;48.048;7.724;2023-05-16T09:21:20;10.83;;;8.87;;
34928;SDS011;21133;48.048;7.724;2023-05-16T09:23:50;10.93;;;8.70;;
34928;SDS011;21133;48.048;7.724;2023-05-16T09:26:16;11.40;;;9.20;;
34928;SDS011;21133;48.048;7.724;2023-05-16T09:28:43;8.40;;;7.53;;
34928;SDS011;21133;48.048;7.724;2023-05-16T09:31:21;8.97;;;8.17;;
34928;SDS011;21133;48.048;7.724;2023-05-16T09:33:47;11.10;;;8.63;;
34928;SDS011;21133;48.048;7.724;2023-05-16T09:36:14;13.17;;;8.43;;
34928;SDS011;21133;48.048;7.724;2023-05-16T09:38:40;9.50;;;8.60;;
34928;SDS011;21133;48.048;7.724;2023-05-16T09:41:08;8.73;;;7.93;;
34928;SDS011;21133;48.048;7.724;2023-05-16T09:43:36;8.90;;;8.00;;
34928;SDS011;21133;48.048;7.724;2023-05-16T09:46:02;10.07;;;7.30;;
34928;SDS011;21133;48.048;7.724;2023-05-16T09:48:28;13.27;;;8.60;;
34928;SDS011;21133;48.048;7.724;2023-05-16T09:50:54;7.93;;;7.17;;
34928;SDS011;21133;48.048;7.724;2023-05-16T09:53:25;9.17;;;8.30;;
34928;SDS011;21133;48.048;7.724;2023-05-16T09:56:10;8.70;;;7.80;;
34928;SDS011;21133;48.048;7.724;2023-05-16T09:58:38;8.20;;;7.43;;
34928;SDS011;21133;48.048;7.724;2023-05-16T10:01:04;10.47;;;8.47;;
34928;SDS011;21133;48.048;7.724;2023-05-16T10:03:33;6.07;;;5.47;;
34928;SDS011;21133;48.048;7.724;2023-05-16T10:05:59;7.60;;;6.90;;
34928;SDS011;21133;48.048;7.724;2023-05-16T10:08:26;10.47;;;7.43;;
34928;SDS011;21133;48.048;7.724;2023-05-16T10:10:55;7.27;;;6.67;;
34928;SDS011;21133;48.048;7.724;2023-05-16T10:13:27;7.07;;;6.37;;
34928;SDS011;21133;48.048;7.724;2023-05-16T10:15:56;6.53;;;6.03;;
34928;SDS011;21133;48.048;7.724;2023-05-16T10:18:30;8.47;;;6.20;;
34928;SDS011;21133;48.048;7.724;2023-05-16T10:20:56;5.60;;;5.23;;
34928;SDS011;21133;48.048;7.724;2023-05-16T10:23:24;6.07;;;5.57;;
34928;SDS011;21133;48.048;7.724;2023-05-16T10:25:50;8.70;;;5.70;;
34928;SDS011;21133;48.048;7.724;2023-05-16T10:28:16;5.03;;;4.63;;
34928;SDS011;21133;48.048;7.724;2023-05-16T10:30:46;5.00;;;4.70;;
34928;SDS011;21133;48.048;7.724;2023-05-16T10:33:13;6.03;;;5.53;;
34928;SDS011;21133;48.048;7.724;2023-05-16T10:35:39;4.67;;;4.47;;
34928;SDS011;21133;48.048;7.724;2023-05-16T10:38:05;8.53;;;5.27;;
34928;SDS011;21133;48.048;7.724;2023-05-16T10:40:32;4.83;;;4.43;;
34928;SDS011;21133;48.048;7.724;2023-05-16T10:42:59;5.23;;;4.90;;
34928;SDS011;21133;48.048;7.724;2023-05-16T10:45:25;4.70;;;4.50;;
34928;SDS011;21133;48.048;7.724;2023-05-16T10:47:55;4.50;;;4.30;;
34928;SDS011;21133;48.048;7.724;2023-05-16T10:53:19;4.43;;;4.23;;
34928;SDS011;21133;48.048;7.724;2023-05-16T11:06:23;3.20;;;3.10;;
34928;SDS011;21133;48.048;7.724;2023-05-16T11:11:37;3.83;;;3.63;;
34928;SDS011;21133;48.048;7.724;2023-05-16T11:14:03;3.33;;;3.13;;
34928;SDS011;21133;48.048;7.724;2023-05-16T11:16:29;3.00;;;2.90;;
34928;SDS011;21133;48.048;7.724;2023-05-16T11:19:03;4.90;;;2.77;;
34928;SDS011;21133;48.048;7.724;2023-05-16T11:24:26;2.30;;;2.20;;
34928;SDS011;21133;48.048;7.724;2023-05-16T11:26:53;2.40;;;2.40;;
34928;SDS011;21133;48.048;7.724;2023-05-16T11:29:19;6.10;;;2.40;;
34928;SDS011;21133;48.048;7.724;2023-05-16T11:31:46;2.77;;;2.77;;
34928;SDS011;21133;48.048;7.724;2023-05-16T11:34:12;2.40;;;2.40;;
34928;SDS011;21133;48.048;7.724;2023-05-16T11:36:38;3.27;;;2.57;;
34928;SDS011;21133;48.048;7.724;2023-05-16T11:39:07;2.70;;;2.67;;
34928;SDS011;21133;48.048;7.724;2023-05-16T11:41:34;2.60;;;2.50;;
34928;SDS011;21133;48.048;7.724;2023-05-16T11:44:00;2.87;;;2.67;;
34928;SDS011;21133;48.048;7.724;2023-05-16T11:46:26;3.53;;;3.33;;
34928;SDS011;21133;48.048;7.724;2023-05-16T11:48:52;2.63;;;2.53;;
34928;SDS011;21133;48.048;7.724;2023-05-16T11:51:18;3.17;;;3.07;;
34928;SDS011;21133;48.048;7.724;2023-05-16T11:53:46;2.70;;;2.50;;
34928;SDS011;21133;48.048;7.724;2023-05-16T11:56:13;3.13;;;2.90;;
34928;SDS011;21133;48.048;7.724;2023-05-16T11:58:40;3.17;;;2.83;;
34928;SDS011;21133;48.048;7.724;2023-05-16T12:01:06;3.30;;;3.10;;
34928;SDS011;21133;48.048;7.724;2023-05-16T12:03:32;2.77;;;2.67;;
34928;SDS011;21133;48.048;7.724;2023-05-16T12:05:59;3.20;;;2.97;;
34928;SDS011;21133;48.048;7.724;2023-05-16T12:08:25;5.20;;;2.80;;
34928;SDS011;21133;48.048;7.724;2023-05-16T12:10:52;2.70;;;2.50;;
34928;SDS011;21133;48.048;7.724;2023-05-16T12:13:18;3.13;;;3.03;;
34928;SDS011;21133;48.048;7.724;2023-05-16T12:15:45;2.60;;;2.40;;
34928;SDS011;21133;48.048;7.724;2023-05-16T12:18:11;2.73;;;2.47;;
34928;SDS011;21133;48.048;7.724;2023-05-16T12:20:37;2.50;;;2.40;;
34928;SDS011;21133;48.048;7.724;2023-05-16T12:23:04;7.60;;;2.40;;
34928;SDS011;21133;48.048;7.724;2023-05-16T12:25:35;11.50;;;2.07;;
34928;SDS011;21133;48.048;7.724;2023-05-16T12:28:06;1.97;;;1.87;;
34928;SDS011;21133;48.048;7.724;2023-05-16T12:30:32;2.37;;;2.17;;
34928;SDS011;21133;48.048;7.724;2023-05-16T12:32:58;1.73;;;1.73;;
34928;SDS011;21133;48.048;7.724;2023-05-16T12:35:30;2.30;;;2.20;;
34928;SDS011;21133;48.048;7.724;2023-05-16T12:37:57;1.93;;;1.83;;
34928;SDS011;21133;48.048;7.724;2023-05-16T12:40:23;2.10;;;2.00;;
34928;SDS011;21133;48.048;7.724;2023-05-16T12:42:52;1.63;;;1.63;;
34928;SDS011;21133;48.048;7.724;2023-05-16T12:45:18;1.47;;;1.47;;
34928;SDS011;21133;48.048;7.724;2023-05-16T12:47:45;2.20;;;1.30;;
34928;SDS011;21133;48.048;7.724;2023-05-16T12:50:11;1.40;;;1.40;;
34928;SDS011;21133;48.048;7.724;2023-05-16T12:52:45;1.83;;;1.73;;
34928;SDS011;21133;48.048;7.724;2023-05-16T12:55:12;3.60;;;1.10;;
34928;SDS011;21133;48.048;7.724;2023-05-16T12:57:40;1.57;;;1.23;;
34928;SDS011;21133;48.048;7.724;2023-05-16T13:00:07;4.27;;;1.33;;
34928;SDS011;21133;48.048;7.724;2023-05-16T13:02:36;1.20;;;1.10;;
34928;SDS011;21133;48.048;7.724;2023-05-16T13:05:02;3.20;;;3.10;;
34928;SDS011;21133;48.048;7.724;2023-05-16T13:07:28;2.30;;;1.73;;
34928;SDS011;21133;48.048;7.724;2023-05-16T13:09:54;1.13;;;1.07;;
34928;SDS011;21133;48.048;7.724;2023-05-16T13:12:20;0.83;;;0.83;;
34928;SDS011;21133;48.048;7.724;2023-05-16T13:14:50;0.90;;;0.90;;
34928;SDS011;21133;48.048;7.724;2023-05-16T13:17:16;1.33;;;1.20;;
34928;SDS011;21133;48.048;7.724;2023-05-16T13:19:42;0.90;;;0.90;;
34928;SDS011;21133;48.048;7.724;2023-05-16T13:22:08;1.03;;;1.03;;
34928;SDS011;21133;48.048;7.724;2023-05-16T13:24:34;1.00;;;1.00;;
34928;SDS011;21133;48.048;7.724;2023-05-16T13:27:00;0.90;;;0.90;;
34928;SDS011;21133;48.048;7.724;2023-05-16T13:29:27;1.03;;;1.03;;
34928;SDS011;21133;48.048;7.724;2023-05-16T13:31:52;1.53;;;1.43;;
34928;SDS011;21133;48.048;7.724;2023-05-16T13:34:18;1.20;;;1.20;;
34928;SDS011;21133;48.048;7.724;2023-05-16T13:36:44;0.93;;;0.93;;
34928;SDS011;21133;48.048;7.724;2023-05-16T13:39:11;1.40;;;1.40;;
34928;SDS011;21133;48.048;7.724;2023-05-16T13:41:37;1.17;;;0.80;;
34928;SDS011;21133;48.048;7.724;2023-05-16T13:44:04;0.93;;;0.93;;
34928;SDS011;21133;48.048;7.724;2023-05-16T13:46:30;1.20;;;1.10;;
34928;SDS011;21133;48.048;7.724;2023-05-16T13:48:57;1.07;;;1.07;;
34928;SDS011;21133;48.048;7.724;2023-05-16T13:51:23;0.93;;;0.93;;
34928;SDS011;21133;48.048;7.724;2023-05-16T13:53:49;0.90;;;0.90;;
34928;SDS011;21133;48.048;7.724;2023-05-16T13:56:15;1.07;;;0.97;;
34928;SDS011;21133;48.048;7.724;2023-05-16T13:58:40;1.00;;;1.00;;
34928;SDS011;21133;48.048;7.724;2023-05-16T14:01:06;1.03;;;1.03;;
34928;SDS011;21133;48.048;7.724;2023-05-16T14:03:32;1.30;;;1.30;;
34928;SDS011;21133;48.048;7.724;2023-05-16T14:06:00;5.07;;;1.57;;
34928;SDS011;21133;48.048;7.724;2023-05-16T14:08:26;0.83;;;0.83;;
34928;SDS011;21133;48.048;7.724;2023-05-16T14:10:53;0.93;;;0.93;;
34928;SDS011;21133;48.048;7.724;2023-05-16T14:13:19;4.27;;;1.10;;
34928;SDS011;21133;48.048;7.724;2023-05-16T14:15:45;1.03;;;1.03;;
34928;SDS011;21133;48.048;7.724;2023-05-16T14:18:11;1.13;;;1.13;;
34928;SDS011;21133;48.048;7.724;2023-05-16T14:20:37;0.67;;;0.67;;
34928;SDS011;21133;48.048;7.724;2023-05-16T14:23:03;1.07;;;1.07;;
34928;SDS011;21133;48.048;7.724;2023-05-16T14:25:29;3.60;;;0.90;;
34928;SDS011;21133;48.048;7.724;2023-05-16T14:27:55;1.13;;;1.13;;
34928;SDS011;21133;48.048;7.724;2023-05-16T14:30:21;6.27;;;1.33;;
34928;SDS011;21133;48.048;7.724;2023-05-16T14:32:47;2.10;;;1.13;;
34928;SDS011;21133;48.048;7.724;2023-05-16T14:35:13;0.97;;;0.97;;
34928;SDS011;21133;48.048;7.724;2023-05-16T14:37:39;0.90;;;0.90;;
34928;SDS011;21133;48.048;7.724;2023-05-16T14:40:06;0.60;;;0.60;;
34928;SDS011;21133;48.048;7.724;2023-05-16T14:42:33;0.83;;;0.80;;
34928;SDS011;21133;48.048;7.724;2023-05-16T14:44:59;1.07;;;1.07;;
34928;SDS011;21133;48.048;7.724;2023-05-16T14:47:25;1.10;;;1.10;;
34928;SDS011;21133;48.048;7.724;2023-05-16T14:49:52;4.27;;;1.00;;
34928;SDS011;21133;48.048;7.724;2023-05-16T14:52:19;1.00;;;1.00;;
34928;SDS011;21133;48.048;7.724;2023-05-16T14:54:45;12.20;;;1.23;;
34928;SDS011;21133;48.048;7.724;2023-05-16T14:57:11;1.10;;;1.10;;
34928;SDS011;21133;48.048;7.724;2023-05-16T14:59:37;1.90;;;1.30;;
34928;SDS011;21133;48.048;7.724;2023-05-16T15:02:03;1.20;;;0.97;;
34928;SDS011;21133;48.048;7.724;2023-05-16T15:04:31;1.00;;;1.00;;
34928;SDS011;21133;48.048;7.724;2023-05-16T15:06:57;1.20;;;1.20;;
34928;SDS011;21133;48.048;7.724;2023-05-16T15:09:23;2.40;;;2.27;;
34928;SDS011;21133;48.048;7.724;2023-05-16T15:11:49;1.10;;;1.10;;
34928;SDS011;21133;48.048;7.724;2023-05-16T15:14:15;4.50;;;1.13;;
34928;SDS011;21133;48.048;7.724;2023-05-16T15:16:41;1.17;;;1.17;;
34928;SDS011;21133;48.048;7.724;2023-05-16T15:19:07;1.23;;;1.00;;
34928;SDS011;21133;48.048;7.724;2023-05-16T15:21:33;1.90;;;1.03;;
34928;SDS011;21133;48.048;7.724;2023-05-16T15:23:59;8.20;;;1.20;;
34928;SDS011;21133;48.048;7.724;2023-05-16T15:26:25;2.83;;;1.30;;
34928;SDS011;21133;48.048;7.724;2023-05-16T15:28:51;1.20;;;1.20;;
34928;SDS011;21133;48.048;7.724;2023-05-16T15:31:19;1.60;;;1.50;;
34928;SDS011;21133;48.048;7.724;2023-05-16T15:33:45;3.23;;;1.70;;
34928;SDS011;21133;48.048;7.724;2023-05-16T15:36:11;1.53;;;1.53;;
34928;SDS011;21133;48.048;7.724;2023-05-16T15:38:37;1.63;;;1.53;;
34928;SDS011;21133;48.048;7.724;2023-05-16T15:41:08;2.30;;;1.50;;
34928;SDS011;21133;48.048;7.724;2023-05-16T15:43:34;1.23;;;1.23;;
34928;SDS011;21133;48.048;7.724;2023-05-16T15:45:59;1.23;;;1.13;;
34928;SDS011;21133;48.048;7.724;2023-05-16T15:48:25;1.63;;;1.50;;
34928;SDS011;21133;48.048;7.724;2023-05-16T15:50:51;1.70;;;1.40;;
34928;SDS011;21133;48.048;7.724;2023-05-16T15:53:17;5.43;;;1.63;;
34928;SDS011;21133;48.048;7.724;2023-05-16T15:55:43;1.47;;;1.20;;
34928;SDS011;21133;48.048;7.724;2023-05-16T15:58:13;1.90;;;1.80;;
34928;SDS011;21133;48.048;7.724;2023-05-16T16:00:39;1.67;;;1.50;;
34928;SDS011;21133;48.048;7.724;2023-05-16T16:03:06;2.60;;;2.07;;
34928;SDS011;21133;48.048;7.724;2023-05-16T16:05:33;3.13;;;1.80;;
34928;SDS011;21133;48.048;7.724;2023-05-16T16:07:59;3.40;;;1.37;;
34928;SDS011;21133;48.048;7.724;2023-05-16T16:10:25;1.47;;;1.47;;
34928;SDS011;21133;48.048;7.724;2023-05-16T16:13:03;2.93;;;1.27;;
34928;SDS011;21133;48.048;7.724;2023-05-16T16:15:30;1.53;;;1.43;;
34928;SDS011;21133;48.048;7.724;2023-05-16T16:17:56;3.73;;;1.60;;
34928;SDS011;21133;48.048;7.724;2023-05-16T16:20:22;1.30;;;1.13;;
34928;SDS011;21133;48.048;7.724;2023-05-16T16:22:48;3.23;;;1.50;;
34928;SDS011;21133;48.048;7.724;2023-05-16T16:25:15;5.50;;;2.20;;
34928;SDS011;21133;48.048;7.724;2023-05-16T16:27:41;4.07;;;1.07;;
34928;SDS011;21133;48.048;7.724;2023-05-16T16:30:07;4.00;;;1.10;;
34928;SDS011;21133;48.048;7.724;2023-05-16T16:32:33;1.73;;;1.20;;
34928;SDS011;21133;48.048;7.724;2023-05-16T16:35:00;1.00;;;1.00;;
34928;SDS011;21133;48.048;7.724;2023-05-16T16:37:29;2.60;;;1.00;;
34928;SDS011;21133;48.048;7.724;2023-05-16T16:39:54;1.00;;;1.00;;
34928;SDS011;21133;48.048;7.724;2023-05-16T16:42:21;3.20;;;0.93;;
34928;SDS011;21133;48.048;7.724;2023-05-16T16:44:49;2.20;;;1.43;;
34928;SDS011;21133;48.048;7.724;2023-05-16T16:47:15;8.13;;;1.10;;
34928;SDS011;21133;48.048;7.724;2023-05-16T16:49:41;2.53;;;1.10;;
34928;SDS011;21133;48.048;7.724;2023-05-16T16:52:07;3.07;;;1.20;;
34928;SDS011;21133;48.048;7.724;2023-05-16T16:54:33;6.80;;;1.80;;
34928;SDS011;21133;48.048;7.724;2023-05-16T16:56:59;0.90;;;0.90;;
34928;SDS011;21133;48.048;7.724;2023-05-16T16:59:26;3.67;;;1.87;;
34928;SDS011;21133;48.048;7.724;2023-05-16T17:01:52;3.70;;;1.17;;
34928;SDS011;21133;48.048;7.724;2023-05-16T17:04:18;2.50;;;1.33;;
34928;SDS011;21133;48.048;7.724;2023-05-16T17:06:44;5.23;;;1.10;;
34928;SDS011;21133;48.048;7.724;2023-05-16T17:09:10;2.00;;;1.20;;
34928;SDS011;21133;48.048;7.724;2023-05-16T17:11:40;3.03;;;1.20;;
34928;SDS011;21133;48.048;7.724;2023-05-16T17:14:08;1.10;;;1.03;;
34928;SDS011;21133;48.048;7.724;2023-05-16T17:16:35;6.43;;;1.80;;
34928;SDS011;21133;48.048;7.724;2023-05-16T17:19:01;3.87;;;1.37;;
34928;SDS011;21133;48.048;7.724;2023-05-16T17:21:28;5.20;;;2.03;;
34928;SDS011;21133;48.048;7.724;2023-05-16T17:23:55;1.70;;;1.60;;
34928;SDS011;21133;48.048;7.724;2023-05-16T17:26:22;1.03;;;1.03;;